This is the latest recevied weather packets stored in our database for station/object LA4GY-1. If no packets are shown the sender has not sent any weather packets the latest 10 day(s).
| Time | Temp. | Humidity | Pressure | Rain* | Wind** | Luminosity | Snow |
|---|---|---|---|---|---|---|---|
| 1778003406 | 3.33° C | 91% | 1003 hPa | 0.51 mm | - | - | - |
| 1778002206 | 2.78° C | 91% | 1003 hPa | 0.51 mm | - | - | - |
| 1778001605 | 2.78° C | 92% | 1003 hPa | 0.51 mm | - | - | - |
| 1777998606 | 2.78° C | 93% | 1003.1 hPa | 0.25 mm | - | - | - |
| 1777996206 | 2.22° C | 92% | 1003.5 hPa | 0.76 mm | - | - | - |
| 1777994406 | 2.22° C | 89% | 1003.5 hPa | 0.76 mm | - | - | - |
| 1777993806 | 2.78° C | 88% | 1003.4 hPa | 0.51 mm | - | - | - |
| 1777986605 | 2.78° C | 88% | 1002.6 hPa | 0.51 mm | - | - | - |
| 1777980605 | 5.56° C | 77% | 1001.9 hPa | 0 mm | - | - | - |
| 1777975806 | 4.44° C | 88% | 1001.6 hPa | 0.25 mm | - | - | - |
| 1777972205 | 2.78° C | 92% | 1001.7 hPa | 0.25 mm | - | - | - |
| 1777971006 | 2.22° C | 92% | 1001.8 hPa | 0.51 mm | - | - | - |
| 1777970406 | 1.67° C | 91% | 1001.7 hPa | 0.51 mm | - | - | - |
| 1777960805 | 2.22° C | 87% | 1000.9 hPa | 0 mm | - | - | - |
| 1777959005 | 1.67° C | 91% | 1000.9 hPa | 0 mm | - | - | - |
| 1777957806 | 1.11° C | 92% | 1000.9 hPa | 0 mm | - | - | - |
| 1777956006 | 0.56° C | 91% | 1000.7 hPa | 0 mm | - | - | - |
| 1777954805 | 0.56° C | 92% | 1000.8 hPa | 0 mm | - | - | - |
| 1777953605 | 0.56° C | 93% | 1000.5 hPa | 0 mm | - | - | - |
| 1777944605 | 1.11° C | 91% | 1000.3 hPa | 0 mm | - | - | - |
| 1777934405 | 1.11° C | 84% | 1000 hPa | 0 mm | - | - | - |
| 1777932605 | 1.67° C | 83% | 999.8 hPa | 0 mm | - | - | - |
| 1777929005 | 2.78° C | 80% | 999.6 hPa | 0 mm | - | - | - |
| 1777928405 | 2.78° C | 79% | 999.6 hPa | 0 mm | - | - | - |
| 1777926605 | 2.78° C | 79% | 999.5 hPa | 0 mm | - | - | - |
* Rain latest hour (hover to see other rain measurements)
** Current wind speed in m/s (hover to see current wind gust speed)